sensor_id;sensor_type;location;lat;lon;timestamp;P1;durP1;ratioP1;P2;durP2;ratioP2
41201;SDS011;26936;50.524;8.684;2022-10-31T00:00:52;11.50;;;6.30;;
41201;SDS011;26936;50.524;8.684;2022-10-31T00:03:18;11.65;;;6.68;;
41201;SDS011;26936;50.524;8.684;2022-10-31T00:05:43;23.75;;;8.88;;
41201;SDS011;26936;50.524;8.684;2022-10-31T00:08:10;14.65;;;7.97;;
41201;SDS011;26936;50.524;8.684;2022-10-31T00:10:39;17.88;;;8.23;;
41201;SDS011;26936;50.524;8.684;2022-10-31T00:13:06;16.88;;;9.60;;
41201;SDS011;26936;50.524;8.684;2022-10-31T00:15:32;31.52;;;9.85;;
41201;SDS011;26936;50.524;8.684;2022-10-31T00:17:58;24.88;;;9.68;;
41201;SDS011;26936;50.524;8.684;2022-10-31T00:20:24;26.87;;;10.13;;
41201;SDS011;26936;50.524;8.684;2022-10-31T00:22:49;19.23;;;9.63;;
41201;SDS011;26936;50.524;8.684;2022-10-31T00:25:14;25.07;;;9.53;;
41201;SDS011;26936;50.524;8.684;2022-10-31T00:27:39;31.83;;;10.87;;
41201;SDS011;26936;50.524;8.684;2022-10-31T00:30:05;36.30;;;9.93;;
41201;SDS011;26936;50.524;8.684;2022-10-31T00:32:31;31.63;;;10.90;;
41201;SDS011;26936;50.524;8.684;2022-10-31T00:34:56;16.33;;;9.98;;
41201;SDS011;26936;50.524;8.684;2022-10-31T00:37:21;20.80;;;9.52;;
41201;SDS011;26936;50.524;8.684;2022-10-31T00:39:46;15.75;;;9.43;;
41201;SDS011;26936;50.524;8.684;2022-10-31T00:42:14;16.05;;;9.00;;
41201;SDS011;26936;50.524;8.684;2022-10-31T00:44:39;18.88;;;8.82;;
41201;SDS011;26936;50.524;8.684;2022-10-31T00:47:04;26.63;;;9.27;;
41201;SDS011;26936;50.524;8.684;2022-10-31T00:49:29;35.53;;;9.43;;
41201;SDS011;26936;50.524;8.684;2022-10-31T00:51:55;20.17;;;8.83;;
41201;SDS011;26936;50.524;8.684;2022-10-31T00:54:20;55.67;;;9.87;;
41201;SDS011;26936;50.524;8.684;2022-10-31T00:56:45;27.20;;;10.32;;
41201;SDS011;26936;50.524;8.684;2022-10-31T00:59:10;39.57;;;9.17;;
41201;SDS011;26936;50.524;8.684;2022-10-31T01:01:36;26.57;;;9.53;;
41201;SDS011;26936;50.524;8.684;2022-10-31T01:04:01;31.40;;;8.43;;
41201;SDS011;26936;50.524;8.684;2022-10-31T01:06:26;14.20;;;8.00;;
41201;SDS011;26936;50.524;8.684;2022-10-31T01:08:51;22.45;;;8.40;;
41201;SDS011;26936;50.524;8.684;2022-10-31T01:11:18;13.33;;;7.13;;
41201;SDS011;26936;50.524;8.684;2022-10-31T01:13:45;14.15;;;7.38;;
41201;SDS011;26936;50.524;8.684;2022-10-31T01:16:11;17.20;;;7.38;;
41201;SDS011;26936;50.524;8.684;2022-10-31T01:18:39;17.20;;;7.90;;
41201;SDS011;26936;50.524;8.684;2022-10-31T01:21:09;17.65;;;7.85;;
41201;SDS011;26936;50.524;8.684;2022-10-31T01:23:36;28.05;;;7.50;;
41201;SDS011;26936;50.524;8.684;2022-10-31T01:26:07;13.40;;;6.47;;
41201;SDS011;26936;50.524;8.684;2022-10-31T01:28:35;8.52;;;5.93;;
41201;SDS011;26936;50.524;8.684;2022-10-31T01:31:02;8.05;;;5.75;;
41201;SDS011;26936;50.524;8.684;2022-10-31T01:33:30;10.73;;;5.57;;
41201;SDS011;26936;50.524;8.684;2022-10-31T01:35:55;9.93;;;5.43;;
41201;SDS011;26936;50.524;8.684;2022-10-31T01:38:20;10.60;;;5.65;;
41201;SDS011;26936;50.524;8.684;2022-10-31T01:40:45;10.23;;;5.23;;
41201;SDS011;26936;50.524;8.684;2022-10-31T01:43:13;8.20;;;5.30;;
41201;SDS011;26936;50.524;8.684;2022-10-31T01:45:40;8.27;;;5.40;;
41201;SDS011;26936;50.524;8.684;2022-10-31T01:48:11;10.68;;;6.03;;
41201;SDS011;26936;50.524;8.684;2022-10-31T01:50:40;9.52;;;5.82;;
41201;SDS011;26936;50.524;8.684;2022-10-31T01:53:07;9.27;;;5.57;;
41201;SDS011;26936;50.524;8.684;2022-10-31T01:55:35;10.52;;;6.75;;
41201;SDS011;26936;50.524;8.684;2022-10-31T01:58:07;8.40;;;5.95;;
41201;SDS011;26936;50.524;8.684;2022-10-31T02:00:36;11.18;;;6.95;;
41201;SDS011;26936;50.524;8.684;2022-10-31T02:03:03;11.15;;;7.25;;
41201;SDS011;26936;50.524;8.684;2022-10-31T02:05:29;10.95;;;7.05;;
41201;SDS011;26936;50.524;8.684;2022-10-31T02:08:01;12.18;;;7.15;;
41201;SDS011;26936;50.524;8.684;2022-10-31T02:10:34;13.32;;;7.05;;
41201;SDS011;26936;50.524;8.684;2022-10-31T02:13:02;14.68;;;7.15;;
41201;SDS011;26936;50.524;8.684;2022-10-31T02:15:30;10.75;;;6.60;;
41201;SDS011;26936;50.524;8.684;2022-10-31T02:17:57;15.38;;;7.25;;
41201;SDS011;26936;50.524;8.684;2022-10-31T02:20:24;18.58;;;8.18;;
41201;SDS011;26936;50.524;8.684;2022-10-31T02:23:03;14.60;;;8.27;;
41201;SDS011;26936;50.524;8.684;2022-10-31T02:31:40;37.45;;;8.48;;
41201;SDS011;26936;50.524;8.684;2022-10-31T02:36:56;46.28;;;8.55;;
41201;SDS011;26936;50.524;8.684;2022-10-31T02:39:29;63.17;;;8.93;;
41201;SDS011;26936;50.524;8.684;2022-10-31T02:42:04;25.25;;;8.25;;
41201;SDS011;26936;50.524;8.684;2022-10-31T02:44:48;23.40;;;7.30;;
41201;SDS011;26936;50.524;8.684;2022-10-31T02:47:26;12.68;;;7.13;;
41201;SDS011;26936;50.524;8.684;2022-10-31T02:49:56;23.45;;;7.72;;
41201;SDS011;26936;50.524;8.684;2022-10-31T02:52:27;13.30;;;7.68;;
41201;SDS011;26936;50.524;8.684;2022-10-31T02:54:53;16.77;;;7.60;;
41201;SDS011;26936;50.524;8.684;2022-10-31T02:57:20;32.03;;;8.10;;
41201;SDS011;26936;50.524;8.684;2022-10-31T02:59:56;16.08;;;7.43;;
41201;SDS011;26936;50.524;8.684;2022-10-31T03:08:45;26.10;;;6.80;;
41201;SDS011;26936;50.524;8.684;2022-10-31T03:11:19;53.80;;;7.13;;
41201;SDS011;26936;50.524;8.684;2022-10-31T03:13:57;18.77;;;6.20;;
41201;SDS011;26936;50.524;8.684;2022-10-31T03:16:48;15.40;;;5.57;;
41201;SDS011;26936;50.524;8.684;2022-10-31T03:19:16;9.20;;;5.82;;
41201;SDS011;26936;50.524;8.684;2022-10-31T03:21:53;10.93;;;5.30;;
41201;SDS011;26936;50.524;8.684;2022-10-31T03:24:23;9.55;;;4.85;;
41201;SDS011;26936;50.524;8.684;2022-10-31T03:26:53;7.75;;;4.68;;
41201;SDS011;26936;50.524;8.684;2022-10-31T03:29:22;6.60;;;4.63;;
41201;SDS011;26936;50.524;8.684;2022-10-31T03:31:55;7.72;;;4.32;;
41201;SDS011;26936;50.524;8.684;2022-10-31T03:34:24;8.07;;;4.95;;
41201;SDS011;26936;50.524;8.684;2022-10-31T03:36:51;6.68;;;4.38;;
41201;SDS011;26936;50.524;8.684;2022-10-31T03:39:19;7.53;;;4.90;;
41201;SDS011;26936;50.524;8.684;2022-10-31T03:41:58;5.60;;;4.28;;
41201;SDS011;26936;50.524;8.684;2022-10-31T03:44:27;7.03;;;4.45;;
41201;SDS011;26936;50.524;8.684;2022-10-31T03:46:55;11.52;;;5.18;;
41201;SDS011;26936;50.524;8.684;2022-10-31T03:49:20;10.48;;;5.40;;
41201;SDS011;26936;50.524;8.684;2022-10-31T03:51:47;10.85;;;5.65;;
41201;SDS011;26936;50.524;8.684;2022-10-31T03:57:05;11.27;;;6.50;;
41201;SDS011;26936;50.524;8.684;2022-10-31T03:59:44;9.75;;;6.07;;
41201;SDS011;26936;50.524;8.684;2022-10-31T04:02:15;8.55;;;6.68;;
41201;SDS011;26936;50.524;8.684;2022-10-31T04:04:43;13.15;;;6.68;;
41201;SDS011;26936;50.524;8.684;2022-10-31T04:07:10;11.60;;;6.22;;
41201;SDS011;26936;50.524;8.684;2022-10-31T04:09:38;13.93;;;7.25;;
41201;SDS011;26936;50.524;8.684;2022-10-31T04:12:08;13.52;;;7.47;;
41201;SDS011;26936;50.524;8.684;2022-10-31T04:14:36;15.63;;;8.10;;
41201;SDS011;26936;50.524;8.684;2022-10-31T04:17:05;17.50;;;7.38;;
41201;SDS011;26936;50.524;8.684;2022-10-31T04:19:36;14.30;;;7.50;;
41201;SDS011;26936;50.524;8.684;2022-10-31T04:22:01;16.48;;;8.30;;
41201;SDS011;26936;50.524;8.684;2022-10-31T04:24:26;29.17;;;8.70;;
41201;SDS011;26936;50.524;8.684;2022-10-31T04:26:52;28.53;;;8.57;;
41201;SDS011;26936;50.524;8.684;2022-10-31T04:29:17;28.70;;;8.20;;
41201;SDS011;26936;50.524;8.684;2022-10-31T04:31:42;39.05;;;8.75;;
41201;SDS011;26936;50.524;8.684;2022-10-31T04:34:07;25.63;;;8.30;;
41201;SDS011;26936;50.524;8.684;2022-10-31T04:36:33;15.10;;;8.10;;
41201;SDS011;26936;50.524;8.684;2022-10-31T04:38:58;46.73;;;9.53;;
41201;SDS011;26936;50.524;8.684;2022-10-31T04:41:23;34.40;;;9.60;;
41201;SDS011;26936;50.524;8.684;2022-10-31T04:43:49;20.77;;;8.10;;
41201;SDS011;26936;50.524;8.684;2022-10-31T04:46:14;35.88;;;8.25;;
41201;SDS011;26936;50.524;8.684;2022-10-31T04:48:39;20.30;;;7.90;;
41201;SDS011;26936;50.524;8.684;2022-10-31T04:51:05;27.25;;;9.15;;
41201;SDS011;26936;50.524;8.684;2022-10-31T04:53:30;24.73;;;8.50;;
41201;SDS011;26936;50.524;8.684;2022-10-31T04:55:57;17.45;;;8.30;;
41201;SDS011;26936;50.524;8.684;2022-10-31T04:58:23;31.85;;;8.25;;
41201;SDS011;26936;50.524;8.684;2022-10-31T05:00:51;24.43;;;8.37;;
41201;SDS011;26936;50.524;8.684;2022-10-31T05:03:17;23.40;;;8.38;;
41201;SDS011;26936;50.524;8.684;2022-10-31T05:05:43;20.02;;;9.00;;
41201;SDS011;26936;50.524;8.684;2022-10-31T05:08:08;14.13;;;8.57;;
41201;SDS011;26936;50.524;8.684;2022-10-31T05:10:33;23.80;;;8.25;;
41201;SDS011;26936;50.524;8.684;2022-10-31T05:12:59;43.87;;;9.57;;
41201;SDS011;26936;50.524;8.684;2022-10-31T05:15:26;53.72;;;9.15;;
41201;SDS011;26936;50.524;8.684;2022-10-31T05:17:52;33.90;;;9.15;;
41201;SDS011;26936;50.524;8.684;2022-10-31T05:20:19;19.65;;;8.38;;
41201;SDS011;26936;50.524;8.684;2022-10-31T05:22:47;33.75;;;8.88;;
41201;SDS011;26936;50.524;8.684;2022-10-31T05:25:17;22.30;;;8.80;;
41201;SDS011;26936;50.524;8.684;2022-10-31T05:27:44;24.17;;;9.35;;
41201;SDS011;26936;50.524;8.684;2022-10-31T05:30:11;24.27;;;9.70;;
41201;SDS011;26936;50.524;8.684;2022-10-31T05:32:38;16.83;;;9.05;;
41201;SDS011;26936;50.524;8.684;2022-10-31T05:35:08;16.45;;;8.18;;
41201;SDS011;26936;50.524;8.684;2022-10-31T05:37:36;21.38;;;7.75;;
41201;SDS011;26936;50.524;8.684;2022-10-31T05:40:02;17.10;;;7.90;;
41201;SDS011;26936;50.524;8.684;2022-10-31T05:42:29;19.33;;;7.78;;
41201;SDS011;26936;50.524;8.684;2022-10-31T05:44:54;18.83;;;8.30;;
41201;SDS011;26936;50.524;8.684;2022-10-31T05:47:20;27.23;;;8.10;;
41201;SDS011;26936;50.524;8.684;2022-10-31T05:49:45;21.75;;;8.25;;
41201;SDS011;26936;50.524;8.684;2022-10-31T05:52:10;27.23;;;7.93;;
41201;SDS011;26936;50.524;8.684;2022-10-31T05:54:35;17.63;;;7.97;;
41201;SDS011;26936;50.524;8.684;2022-10-31T05:57:01;15.77;;;8.00;;
41201;SDS011;26936;50.524;8.684;2022-10-31T05:59:26;25.40;;;8.23;;
41201;SDS011;26936;50.524;8.684;2022-10-31T06:01:51;16.27;;;8.00;;
41201;SDS011;26936;50.524;8.684;2022-10-31T06:04:16;18.03;;;7.87;;
41201;SDS011;26936;50.524;8.684;2022-10-31T06:06:41;20.13;;;8.27;;
41201;SDS011;26936;50.524;8.684;2022-10-31T06:09:07;16.40;;;8.40;;
41201;SDS011;26936;50.524;8.684;2022-10-31T06:11:32;33.28;;;9.45;;
41201;SDS011;26936;50.524;8.684;2022-10-31T06:13:57;24.87;;;10.50;;
41201;SDS011;26936;50.524;8.684;2022-10-31T06:16:22;33.13;;;9.67;;
41201;SDS011;26936;50.524;8.684;2022-10-31T06:18:48;51.47;;;10.23;;
41201;SDS011;26936;50.524;8.684;2022-10-31T06:21:13;43.67;;;9.80;;
41201;SDS011;26936;50.524;8.684;2022-10-31T06:23:38;56.83;;;10.00;;
41201;SDS011;26936;50.524;8.684;2022-10-31T06:26:04;34.80;;;9.43;;
41201;SDS011;26936;50.524;8.684;2022-10-31T06:28:29;39.03;;;9.32;;
41201;SDS011;26936;50.524;8.684;2022-10-31T06:30:54;52.83;;;10.73;;
41201;SDS011;26936;50.524;8.684;2022-10-31T06:33:19;32.90;;;9.63;;
41201;SDS011;26936;50.524;8.684;2022-10-31T06:35:45;36.40;;;9.10;;
41201;SDS011;26936;50.524;8.684;2022-10-31T06:38:11;42.50;;;9.68;;
41201;SDS011;26936;50.524;8.684;2022-10-31T06:40:37;76.55;;;10.07;;
41201;SDS011;26936;50.524;8.684;2022-10-31T06:43:02;44.70;;;10.23;;
41201;SDS011;26936;50.524;8.684;2022-10-31T06:45:27;59.40;;;9.60;;
41201;SDS011;26936;50.524;8.684;2022-10-31T06:47:53;46.35;;;9.25;;
41201;SDS011;26936;50.524;8.684;2022-10-31T06:50:20;16.15;;;7.70;;
41201;SDS011;26936;50.524;8.684;2022-10-31T06:52:56;38.80;;;9.35;;
41201;SDS011;26936;50.524;8.684;2022-10-31T06:55:23;58.35;;;9.77;;
41201;SDS011;26936;50.524;8.684;2022-10-31T06:57:52;46.78;;;8.95;;
41201;SDS011;26936;50.524;8.684;2022-10-31T07:00:18;31.10;;;9.02;;
41201;SDS011;26936;50.524;8.684;2022-10-31T07:02:52;44.50;;;9.35;;
41201;SDS011;26936;50.524;8.684;2022-10-31T07:05:37;39.55;;;10.27;;
41201;SDS011;26936;50.524;8.684;2022-10-31T07:08:04;36.00;;;9.18;;
41201;SDS011;26936;50.524;8.684;2022-10-31T07:10:32;39.60;;;10.00;;
41201;SDS011;26936;50.524;8.684;2022-10-31T07:12:59;25.50;;;8.65;;
41201;SDS011;26936;50.524;8.684;2022-10-31T07:15:27;25.90;;;9.38;;
41201;SDS011;26936;50.524;8.684;2022-10-31T07:17:53;23.55;;;9.27;;
41201;SDS011;26936;50.524;8.684;2022-10-31T07:20:19;21.30;;;9.55;;
41201;SDS011;26936;50.524;8.684;2022-10-31T07:22:44;32.03;;;8.90;;
41201;SDS011;26936;50.524;8.684;2022-10-31T07:25:10;33.55;;;9.20;;
41201;SDS011;26936;50.524;8.684;2022-10-31T07:27:39;43.15;;;10.00;;
41201;SDS011;26936;50.524;8.684;2022-10-31T07:30:07;26.58;;;9.20;;
41201;SDS011;26936;50.524;8.684;2022-10-31T07:32:40;28.30;;;9.60;;
41201;SDS011;26936;50.524;8.684;2022-10-31T07:37:33;65.70;;;10.73;;
41201;SDS011;26936;50.524;8.684;2022-10-31T07:39:58;61.80;;;10.10;;
41201;SDS011;26936;50.524;8.684;2022-10-31T07:42:24;25.40;;;9.88;;
41201;SDS011;26936;50.524;8.684;2022-10-31T07:44:49;33.78;;;10.35;;
41201;SDS011;26936;50.524;8.684;2022-10-31T07:47:14;40.40;;;10.50;;
41201;SDS011;26936;50.524;8.684;2022-10-31T07:49:40;37.87;;;10.83;;
41201;SDS011;26936;50.524;8.684;2022-10-31T07:52:05;39.23;;;9.60;;
41201;SDS011;26936;50.524;8.684;2022-10-31T07:54:30;31.90;;;10.60;;
41201;SDS011;26936;50.524;8.684;2022-10-31T07:56:55;32.37;;;10.60;;
41201;SDS011;26936;50.524;8.684;2022-10-31T07:59:21;21.42;;;11.55;;
41201;SDS011;26936;50.524;8.684;2022-10-31T08:01:46;39.35;;;11.38;;
41201;SDS011;26936;50.524;8.684;2022-10-31T08:04:11;31.92;;;12.57;;
41201;SDS011;26936;50.524;8.684;2022-10-31T08:06:37;30.92;;;11.57;;
41201;SDS011;26936;50.524;8.684;2022-10-31T08:09:02;39.57;;;11.53;;
41201;SDS011;26936;50.524;8.684;2022-10-31T08:11:27;22.38;;;10.32;;
41201;SDS011;26936;50.524;8.684;2022-10-31T08:13:52;30.67;;;9.90;;
41201;SDS011;26936;50.524;8.684;2022-10-31T08:16:18;42.00;;;10.50;;
41201;SDS011;26936;50.524;8.684;2022-10-31T08:18:43;72.70;;;10.67;;
41201;SDS011;26936;50.524;8.684;2022-10-31T08:21:08;62.13;;;10.67;;
41201;SDS011;26936;50.524;8.684;2022-10-31T08:23:33;43.75;;;10.60;;
41201;SDS011;26936;50.524;8.684;2022-10-31T08:25:59;65.80;;;10.90;;
41201;SDS011;26936;50.524;8.684;2022-10-31T08:28:24;79.07;;;12.52;;
41201;SDS011;26936;50.524;8.684;2022-10-31T08:30:49;49.08;;;12.27;;
41201;SDS011;26936;50.524;8.684;2022-10-31T08:33:16;50.60;;;11.83;;
41201;SDS011;26936;50.524;8.684;2022-10-31T08:35:42;52.08;;;12.13;;
41201;SDS011;26936;50.524;8.684;2022-10-31T08:38:09;29.02;;;10.80;;
41201;SDS011;26936;50.524;8.684;2022-10-31T08:40:35;109.13;;;14.43;;
41201;SDS011;26936;50.524;8.684;2022-10-31T08:43:05;117.35;;;14.38;;
41201;SDS011;26936;50.524;8.684;2022-10-31T08:45:34;66.88;;;13.52;;
41201;SDS011;26936;50.524;8.684;2022-10-31T08:48:00;60.72;;;12.65;;
41201;SDS011;26936;50.524;8.684;2022-10-31T08:50:27;42.38;;;12.50;;
41201;SDS011;26936;50.524;8.684;2022-10-31T08:52:59;58.22;;;13.05;;
41201;SDS011;26936;50.524;8.684;2022-10-31T08:55:24;35.15;;;11.95;;
41201;SDS011;26936;50.524;8.684;2022-10-31T08:57:54;68.57;;;13.83;;
41201;SDS011;26936;50.524;8.684;2022-10-31T09:00:20;31.13;;;13.60;;
41201;SDS011;26936;50.524;8.684;2022-10-31T09:02:45;35.33;;;13.10;;
41201;SDS011;26936;50.524;8.684;2022-10-31T09:05:10;78.03;;;14.32;;
41201;SDS011;26936;50.524;8.684;2022-10-31T09:07:36;30.50;;;13.97;;
41201;SDS011;26936;50.524;8.684;2022-10-31T09:10:01;23.45;;;13.70;;
41201;SDS011;26936;50.524;8.684;2022-10-31T09:12:26;36.70;;;15.80;;
41201;SDS011;26936;50.524;8.684;2022-10-31T09:14:51;24.30;;;15.17;;
41201;SDS011;26936;50.524;8.684;2022-10-31T09:17:17;38.50;;;15.50;;
41201;SDS011;26936;50.524;8.684;2022-10-31T09:19:42;26.50;;;15.57;;
41201;SDS011;26936;50.524;8.684;2022-10-31T09:22:07;20.50;;;14.00;;
41201;SDS011;26936;50.524;8.684;2022-10-31T09:24:32;24.63;;;14.37;;
41201;SDS011;26936;50.524;8.684;2022-10-31T09:26:58;23.77;;;15.87;;
41201;SDS011;26936;50.524;8.684;2022-10-31T09:29:23;26.30;;;15.55;;
41201;SDS011;26936;50.524;8.684;2022-10-31T09:31:48;24.57;;;14.67;;
41201;SDS011;26936;50.524;8.684;2022-10-31T09:34:13;24.42;;;15.02;;
41201;SDS011;26936;50.524;8.684;2022-10-31T09:36:39;20.70;;;13.33;;
41201;SDS011;26936;50.524;8.684;2022-10-31T09:39:04;19.80;;;12.85;;
41201;SDS011;26936;50.524;8.684;2022-10-31T09:41:33;19.95;;;11.95;;
41201;SDS011;26936;50.524;8.684;2022-10-31T09:44:10;17.73;;;11.27;;
41201;SDS011;26936;50.524;8.684;2022-10-31T09:47:11;13.68;;;9.85;;
41201;SDS011;26936;50.524;8.684;2022-10-31T09:49:55;14.35;;;9.50;;
41201;SDS011;26936;50.524;8.684;2022-10-31T09:52:36;15.20;;;9.20;;
41201;SDS011;26936;50.524;8.684;2022-10-31T09:57:47;11.55;;;8.60;;
41201;SDS011;26936;50.524;8.684;2022-10-31T10:00:17;12.05;;;8.82;;
41201;SDS011;26936;50.524;8.684;2022-10-31T10:02:49;16.65;;;9.27;;
41201;SDS011;26936;50.524;8.684;2022-10-31T10:05:41;13.77;;;8.85;;
41201;SDS011;26936;50.524;8.684;2022-10-31T10:08:12;11.38;;;7.85;;
41201;SDS011;26936;50.524;8.684;2022-10-31T10:13:28;12.85;;;8.80;;
41201;SDS011;26936;50.524;8.684;2022-10-31T10:21:46;24.13;;;8.82;;
41201;SDS011;26936;50.524;8.684;2022-10-31T10:24:26;18.48;;;8.70;;
41201;SDS011;26936;50.524;8.684;2022-10-31T10:27:01;15.10;;;8.65;;
41201;SDS011;26936;50.524;8.684;2022-10-31T10:29:53;13.40;;;7.40;;
41201;SDS011;26936;50.524;8.684;2022-10-31T10:32:27;12.93;;;7.65;;
41201;SDS011;26936;50.524;8.684;2022-10-31T10:34:59;11.85;;;7.60;;
41201;SDS011;26936;50.524;8.684;2022-10-31T10:37:42;10.10;;;7.10;;
41201;SDS011;26936;50.524;8.684;2022-10-31T10:42:56;11.95;;;7.85;;
41201;SDS011;26936;50.524;8.684;2022-10-31T10:46:00;13.07;;;7.65;;
41201;SDS011;26936;50.524;8.684;2022-10-31T10:51:44;12.35;;;7.70;;
41201;SDS011;26936;50.524;8.684;2022-10-31T10:59:42;13.50;;;8.15;;
41201;SDS011;26936;50.524;8.684;2022-10-31T11:02:18;13.15;;;8.43;;
41201;SDS011;26936;50.524;8.684;2022-10-31T11:04:50;14.20;;;7.95;;
41201;SDS011;26936;50.524;8.684;2022-10-31T11:07:17;13.80;;;8.60;;
41201;SDS011;26936;50.524;8.684;2022-10-31T11:09:43;15.50;;;10.02;;
41201;SDS011;26936;50.524;8.684;2022-10-31T11:12:09;17.30;;;10.32;;
41201;SDS011;26936;50.524;8.684;2022-10-31T11:14:48;17.60;;;11.10;;
41201;SDS011;26936;50.524;8.684;2022-10-31T11:17:27;14.75;;;10.32;;
41201;SDS011;26936;50.524;8.684;2022-10-31T11:19:59;15.98;;;10.27;;
41201;SDS011;26936;50.524;8.684;2022-10-31T11:22:46;15.65;;;9.65;;
41201;SDS011;26936;50.524;8.684;2022-10-31T11:27:44;13.43;;;9.10;;
41201;SDS011;26936;50.524;8.684;2022-10-31T11:30:09;15.82;;;8.95;;
41201;SDS011;26936;50.524;8.684;2022-10-31T11:32:37;14.32;;;9.00;;
41201;SDS011;26936;50.524;8.684;2022-10-31T11:35:12;14.05;;;8.90;;
41201;SDS011;26936;50.524;8.684;2022-10-31T11:37:43;14.63;;;8.85;;
41201;SDS011;26936;50.524;8.684;2022-10-31T11:40:15;13.50;;;8.88;;
41201;SDS011;26936;50.524;8.684;2022-10-31T11:42:49;13.65;;;8.68;;
41201;SDS011;26936;50.524;8.684;2022-10-31T11:45:19;12.90;;;8.23;;
41201;SDS011;26936;50.524;8.684;2022-10-31T11:47:54;14.93;;;8.45;;
41201;SDS011;26936;50.524;8.684;2022-10-31T11:50:25;17.05;;;8.98;;
41201;SDS011;26936;50.524;8.684;2022-10-31T11:52:53;15.10;;;8.30;;
41201;SDS011;26936;50.524;8.684;2022-10-31T11:55:33;15.82;;;8.07;;
41201;SDS011;26936;50.524;8.684;2022-10-31T11:58:00;14.25;;;7.68;;
41201;SDS011;26936;50.524;8.684;2022-10-31T12:00:30;18.15;;;7.93;;
41201;SDS011;26936;50.524;8.684;2022-10-31T12:03:26;16.70;;;8.23;;
41201;SDS011;26936;50.524;8.684;2022-10-31T12:08:37;11.50;;;7.07;;
41201;SDS011;26936;50.524;8.684;2022-10-31T12:16:46;15.02;;;7.15;;
41201;SDS011;26936;50.524;8.684;2022-10-31T12:19:22;14.95;;;6.60;;
41201;SDS011;26936;50.524;8.684;2022-10-31T12:21:55;14.02;;;6.85;;
41201;SDS011;26936;50.524;8.684;2022-10-31T12:36:01;15.48;;;6.68;;
41201;SDS011;26936;50.524;8.684;2022-10-31T12:38:50;17.98;;;7.20;;
41201;SDS011;26936;50.524;8.684;2022-10-31T12:41:39;13.23;;;6.45;;
41201;SDS011;26936;50.524;8.684;2022-10-31T12:44:34;14.65;;;6.50;;
41201;SDS011;26936;50.524;8.684;2022-10-31T12:47:24;35.88;;;23.10;;
41201;SDS011;26936;50.524;8.684;2022-10-31T12:52:54;14.63;;;5.88;;
41201;SDS011;26936;50.524;8.684;2022-10-31T12:58:56;13.13;;;5.80;;
41201;SDS011;26936;50.524;8.684;2022-10-31T13:01:46;13.68;;;6.35;;
41201;SDS011;26936;50.524;8.684;2022-10-31T13:04:18;13.30;;;7.20;;
41201;SDS011;26936;50.524;8.684;2022-10-31T13:06:55;18.50;;;9.20;;
41201;SDS011;26936;50.524;8.684;2022-10-31T13:09:32;13.35;;;6.15;;
41201;SDS011;26936;50.524;8.684;2022-10-31T13:12:10;15.45;;;6.38;;
41201;SDS011;26936;50.524;8.684;2022-10-31T13:14:39;12.05;;;6.25;;
41201;SDS011;26936;50.524;8.684;2022-10-31T13:17:11;10.85;;;6.10;;
41201;SDS011;26936;50.524;8.684;2022-10-31T13:19:58;12.50;;;5.47;;
41201;SDS011;26936;50.524;8.684;2022-10-31T13:22:44;11.98;;;5.57;;
41201;SDS011;26936;50.524;8.684;2022-10-31T13:27:44;10.95;;;5.47;;
41201;SDS011;26936;50.524;8.684;2022-10-31T13:38:30;12.32;;;5.47;;
41201;SDS011;26936;50.524;8.684;2022-10-31T13:41:49;8.45;;;4.70;;
41201;SDS011;26936;50.524;8.684;2022-10-31T13:54:37;15.20;;;5.80;;
41201;SDS011;26936;50.524;8.684;2022-10-31T13:57:12;13.52;;;5.65;;
41201;SDS011;26936;50.524;8.684;2022-10-31T13:59:50;9.60;;;4.90;;
41201;SDS011;26936;50.524;8.684;2022-10-31T14:02:20;11.13;;;5.97;;
41201;SDS011;26936;50.524;8.684;2022-10-31T14:04:55;9.88;;;5.32;;
41201;SDS011;26936;50.524;8.684;2022-10-31T14:07:26;11.50;;;5.45;;
41201;SDS011;26936;50.524;8.684;2022-10-31T14:10:03;14.05;;;5.78;;
41201;SDS011;26936;50.524;8.684;2022-10-31T14:12:38;8.13;;;5.15;;
41201;SDS011;26936;50.524;8.684;2022-10-31T14:15:19;9.63;;;5.32;;
41201;SDS011;26936;50.524;8.684;2022-10-31T14:17:59;7.32;;;4.63;;
41201;SDS011;26936;50.524;8.684;2022-10-31T14:22:55;11.95;;;5.22;;
41201;SDS011;26936;50.524;8.684;2022-10-31T14:28:01;56.78;;;34.30;;
41201;SDS011;26936;50.524;8.684;2022-10-31T14:30:50;19.13;;;5.97;;
41201;SDS011;26936;50.524;8.684;2022-10-31T14:33:19;16.35;;;5.78;;
41201;SDS011;26936;50.524;8.684;2022-10-31T14:38:30;13.85;;;5.03;;
41201;SDS011;26936;50.524;8.684;2022-10-31T14:41:18;8.35;;;4.93;;
41201;SDS011;26936;50.524;8.684;2022-10-31T14:46:44;10.15;;;5.03;;
41201;SDS011;26936;50.524;8.684;2022-10-31T14:51:59;12.18;;;5.30;;
41201;SDS011;26936;50.524;8.684;2022-10-31T14:54:26;17.83;;;5.65;;
41201;SDS011;26936;50.524;8.684;2022-10-31T14:56:56;10.98;;;5.05;;
41201;SDS011;26936;50.524;8.684;2022-10-31T14:59:38;12.65;;;5.72;;
41201;SDS011;26936;50.524;8.684;2022-10-31T15:02:16;12.10;;;5.05;;
41201;SDS011;26936;50.524;8.684;2022-10-31T15:07:19;11.88;;;5.25;;
41201;SDS011;26936;50.524;8.684;2022-10-31T15:09:56;14.02;;;5.40;;
41201;SDS011;26936;50.524;8.684;2022-10-31T15:12:30;11.73;;;4.93;;
41201;SDS011;26936;50.524;8.684;2022-10-31T15:14:57;12.88;;;5.35;;
41201;SDS011;26936;50.524;8.684;2022-10-31T15:17:35;14.30;;;5.22;;
41201;SDS011;26936;50.524;8.684;2022-10-31T15:20:00;10.40;;;5.55;;
41201;SDS011;26936;50.524;8.684;2022-10-31T15:22:26;12.27;;;4.55;;
41201;SDS011;26936;50.524;8.684;2022-10-31T15:24:54;12.75;;;5.18;;
41201;SDS011;26936;50.524;8.684;2022-10-31T15:27:21;13.05;;;5.72;;
41201;SDS011;26936;50.524;8.684;2022-10-31T15:29:48;15.32;;;5.00;;
41201;SDS011;26936;50.524;8.684;2022-10-31T15:32:19;11.93;;;5.72;;
41201;SDS011;26936;50.524;8.684;2022-10-31T15:34:48;14.32;;;4.53;;
41201;SDS011;26936;50.524;8.684;2022-10-31T15:37:18;11.05;;;5.50;;
41201;SDS011;26936;50.524;8.684;2022-10-31T15:39:45;10.90;;;4.57;;
41201;SDS011;26936;50.524;8.684;2022-10-31T15:42:17;10.60;;;5.18;;
41201;SDS011;26936;50.524;8.684;2022-10-31T15:47:35;12.13;;;4.43;;
41201;SDS011;26936;50.524;8.684;2022-10-31T15:50:02;8.27;;;4.93;;
41201;SDS011;26936;50.524;8.684;2022-10-31T15:52:34;10.65;;;5.05;;
41201;SDS011;26936;50.524;8.684;2022-10-31T15:55:04;11.15;;;5.18;;
41201;SDS011;26936;50.524;8.684;2022-10-31T15:57:44;9.40;;;4.18;;
41201;SDS011;26936;50.524;8.684;2022-10-31T16:03:02;13.77;;;5.40;;
41201;SDS011;26936;50.524;8.684;2022-10-31T16:05:35;9.73;;;5.20;;
41201;SDS011;26936;50.524;8.684;2022-10-31T16:11:15;18.17;;;6.90;;
41201;SDS011;26936;50.524;8.684;2022-10-31T16:16:29;12.27;;;5.90;;
41201;SDS011;26936;50.524;8.684;2022-10-31T16:18:56;14.77;;;5.68;;
41201;SDS011;26936;50.524;8.684;2022-10-31T16:21:26;10.23;;;5.10;;
41201;SDS011;26936;50.524;8.684;2022-10-31T16:23:59;11.48;;;5.53;;
41201;SDS011;26936;50.524;8.684;2022-10-31T16:26:27;18.67;;;6.07;;
41201;SDS011;26936;50.524;8.684;2022-10-31T16:28:54;14.05;;;5.72;;
41201;SDS011;26936;50.524;8.684;2022-10-31T16:31:35;11.50;;;5.45;;
41201;SDS011;26936;50.524;8.684;2022-10-31T16:36:37;14.20;;;6.63;;
41201;SDS011;26936;50.524;8.684;2022-10-31T16:39:04;10.60;;;6.20;;
41201;SDS011;26936;50.524;8.684;2022-10-31T16:41:37;12.43;;;6.97;;
41201;SDS011;26936;50.524;8.684;2022-10-31T16:44:06;12.23;;;6.03;;
41201;SDS011;26936;50.524;8.684;2022-10-31T16:46:39;15.55;;;6.30;;
41201;SDS011;26936;50.524;8.684;2022-10-31T16:49:04;12.55;;;6.75;;
41201;SDS011;26936;50.524;8.684;2022-10-31T16:51:29;14.30;;;6.23;;